Time;durP1;ratioP1;P1;durP2;ratioP2;P2;SDS_P1;SDS_P2;PMS_P1;PMS_P2;Temp;Humidity;BMP_temperature;BMP_pressure;BME280_temperature;BME280_humidity;BME280_pressure;Samples;Min_cycle;Max_cycle;Signal;HPM_P1;HPM_P2
2022/08/02 00:02:34;;;;;;;1.73;1.63;;;;;;;22.93;62.40;98926.88;6950947;28;20256;-77
2022/08/02 00:05:57;;;;;;;1.93;1.80;;;;;;;22.89;62.75;98925.78;6931812;28;20236;-77
2022/08/02 00:09:18;;;;;;;1.90;1.70;;;;;;;23.20;62.56;98923.78;6922607;28;20220;-77
2022/08/02 00:12:40;;;;;;;1.80;1.70;;;;;;;23.09;62.28;98905.63;6943571;28;20220;-78
2022/08/02 00:16:01;;;;;;;1.60;1.50;;;;;;;23.64;60.26;98903.38;6948987;28;20256;-79
2022/08/02 00:19:23;;;;;;;1.73;1.63;;;;;;;23.39;60.25;98922.84;6949905;28;20205;-78
2022/08/02 00:22:46;;;;;;;2.23;2.00;;;;;;;22.57;62.59;98906.13;6950589;28;20281;-78
2022/08/02 00:26:08;;;;;;;1.80;1.70;;;;;;;22.85;63.00;98926.66;6949882;28;20693;-78
2022/08/02 00:29:29;;;;;;;2.30;2.10;;;;;;;23.05;62.43;98916.38;6950193;28;20261;-77
2022/08/02 00:32:51;;;;;;;1.80;1.70;;;;;;;23.45;61.09;98931.88;6950610;28;20233;-78
2022/08/02 00:36:13;;;;;;;1.90;1.70;;;;;;;23.56;60.21;98923.28;6950204;28;20316;-78
2022/08/02 00:39:36;;;;;;;1.77;1.60;;;;;;;22.85;62.04;98940.41;6949566;28;20277;-78
2022/08/02 00:43:03;;;;;;;2.53;2.00;;;;;;;23.07;61.80;98938.91;6949876;28;20231;-78
2022/08/02 00:46:24;;;;;;;4.00;1.90;;;;;;;22.93;61.22;98937.88;6949992;28;20269;-78
2022/08/02 00:49:46;;;;;;;1.73;1.63;;;;;;;23.23;59.96;98934.19;6949713;28;20743;-78
2022/08/02 00:53:08;;;;;;;1.97;1.70;;;;;;;22.93;61.21;98937.88;6949238;28;20323;-78
2022/08/02 00:56:31;;;;;;;1.90;1.77;;;;;;;23.14;60.96;98933.91;6949610;28;20233;-78
2022/08/02 00:59:53;;;;;;;1.90;1.80;;;;;;;22.92;61.05;98939.00;6949031;28;20302;-78
2022/08/02 01:03:14;;;;;;;2.20;2.10;;;;;;;22.65;61.73;98916.53;6949683;28;20372;-77
2022/08/02 01:06:36;;;;;;;2.40;2.10;;;;;;;22.70;61.43;98927.53;6949580;28;20219;-78
2022/08/02 01:09:59;;;;;;;2.40;2.20;;;;;;;22.54;63.15;98930.59;6948853;28;20218;-78
2022/08/02 01:13:22;;;;;;;2.37;2.17;;;;;;;22.53;63.23;98928.97;6949122;28;20228;-77
2022/08/02 01:16:48;;;;;;;2.40;2.20;;;;;;;22.54;62.52;98920.41;6948979;28;20226;-78
2022/08/02 01:20:25;;;;;;;3.53;2.20;;;;;;;22.79;62.43;98925.84;6948587;28;20230;-78
2022/08/02 01:24:25;;;;;;;2.70;2.30;;;;;;;23.00;62.50;98934.81;6949098;28;20231;-78
2022/08/02 01:28:03;;;;;;;3.73;2.30;;;;;;;21.89;64.79;98941.66;6947879;28;20346;-77
2022/08/02 01:31:28;;;;;;;2.40;2.20;;;;;;;22.92;62.79;98938.16;6948711;28;20262;-77
2022/08/02 01:34:54;;;;;;;2.27;2.07;;;;;;;22.77;62.32;98936.28;6949199;28;20193;-78
2022/08/02 01:38:21;;;;;;;2.70;2.37;;;;;;;22.85;62.39;98937.66;6947832;28;20314;-78
2022/08/02 01:41:43;;;;;;;2.40;2.20;;;;;;;22.80;61.89;98945.91;6948876;28;20618;-78
2022/08/02 01:45:08;;;;;;;4.23;2.50;;;;;;;22.72;61.83;98939.06;6948029;28;20197;-77
2022/08/02 01:48:31;;;;;;;2.70;2.50;;;;;;;22.42;63.53;98969.34;6948530;28;20258;-78
2022/08/02 01:55:35;;;;;;;2.90;2.60;;;;;;;22.54;63.32;98961.66;6948447;28;20214;-78
2022/08/02 01:58:57;;;;;;;4.83;2.70;;;;;;;22.18;63.67;98954.53;6947936;28;20237;-78
2022/08/02 02:02:20;;;;;;;2.87;2.63;;;;;;;22.59;63.33;98947.09;6948290;28;20234;-77
2022/08/02 02:05:42;;;;;;;4.17;2.53;;;;;;;22.50;62.69;98957.81;6947781;28;20239;-77
2022/08/02 02:09:05;;;;;;;2.63;2.43;;;;;;;22.49;62.64;98955.34;6946916;28;20210;-77
2022/08/02 02:12:27;;;;;;;3.10;2.77;;;;;;;22.56;61.67;98947.63;6947735;28;20436;-78
2022/08/02 02:15:50;;;;;;;3.27;2.97;;;;;;;22.37;63.06;98958.34;6947760;28;20823;-78
2022/08/02 02:19:16;;;;;;;2.63;2.43;;;;;;;22.59;62.15;98950.66;6947177;28;20206;-77
2022/08/02 02:22:37;;;;;;;4.07;3.00;;;;;;;22.73;61.98;98951.69;6947699;28;20368;-78
2022/08/02 02:25:59;;;;;;;2.93;2.70;;;;;;;22.64;61.30;98960.78;6946809;28;20207;-77
2022/08/02 02:29:22;;;;;;;3.00;2.60;;;;;;;22.63;61.83;98959.16;6946990;28;20281;-77
2022/08/02 02:32:44;;;;;;;3.30;3.00;;;;;;;22.61;62.38;98956.69;6947356;28;20297;-78
2022/08/02 02:36:08;;;;;;;5.47;3.10;;;;;;;22.56;62.33;98945.72;6947333;28;20772;-77
2022/08/02 02:39:30;;;;;;;3.03;2.50;;;;;;;22.54;61.73;98912.19;6946736;28;20346;-77
2022/08/02 02:42:52;;;;;;;3.83;2.90;;;;;;;22.69;61.92;98949.78;6947316;28;20386;-78
2022/08/02 02:46:14;;;;;;;7.20;3.17;;;;;;;22.66;61.60;98947.63;6946174;28;20240;-78
2022/08/02 02:49:36;;;;;;;3.97;3.13;;;;;;;22.25;62.76;98940.53;6945723;28;20209;-77
2022/08/02 02:53:00;;;;;;;3.07;2.83;;;;;;;21.55;65.25;98954.19;6946658;28;20730;-77
2022/08/02 02:56:22;;;;;;;3.90;3.40;;;;;;;21.90;65.16;98944.09;6946781;28;20277;-78
2022/08/02 02:59:43;;;;;;;4.53;3.30;;;;;;;22.31;64.30;98958.66;6946254;28;20218;-78
2022/08/02 03:03:06;;;;;;;4.50;3.47;;;;;;;22.49;63.48;98958.91;6946450;28;20389;-77
2022/08/02 03:06:28;;;;;;;3.60;2.80;;;;;;;22.62;62.88;98947.34;6946809;28;20788;-77
2022/08/02 03:09:50;;;;;;;6.10;2.97;;;;;;;22.83;61.51;98935.16;6945708;28;20689;-77
2022/08/02 03:13:12;;;;;;;4.20;3.10;;;;;;;22.12;62.58;98932.84;6946477;28;20252;-77
2022/08/02 03:16:34;;;;;;;5.50;3.07;;;;;;;22.55;61.99;98930.31;6945571;28;20246;-78
2022/08/02 03:19:55;;;;;;;3.37;3.07;;;;;;;22.24;62.30;98925.16;6944960;28;20218;-77
2022/08/02 03:23:17;;;;;;;3.37;3.07;;;;;;;22.61;61.51;98918.19;6945822;28;20288;-77
2022/08/02 03:26:40;;;;;;;4.13;2.90;;;;;;;22.51;62.26;98923.75;6944131;28;20290;-78
2022/08/02 03:30:02;;;;;;;3.13;2.83;;;;;;;22.54;62.08;98923.16;6945361;28;20214;-77
2022/08/02 03:33:25;;;;;;;7.87;3.33;;;;;;;22.56;62.39;98926.47;6946594;28;20772;-78
2022/08/02 03:36:48;;;;;;;4.47;3.20;;;;;;;22.69;62.24;98922.31;6946356;28;20280;-77
2022/08/02 03:40:11;;;;;;;4.90;3.20;;;;;;;22.67;62.30;98930.81;6946518;28;20244;-77
2022/08/02 03:43:35;;;;;;;8.30;3.47;;;;;;;22.84;61.62;98931.31;6947410;28;20257;-77
2022/08/02 03:46:57;;;;;;;5.67;2.97;;;;;;;22.84;62.24;98944.25;6947367;28;20551;-78
2022/08/02 03:50:21;;;;;;;3.47;3.17;;;;;;;22.58;62.57;98934.41;6946715;28;20281;-77
2022/08/02 03:53:43;;;;;;;6.17;3.23;;;;;;;22.55;62.97;98943.25;6947757;28;20690;-78
2022/08/02 03:57:06;;;;;;;4.23;3.30;;;;;;;22.89;61.75;98949.75;6946843;28;20257;-77
2022/08/02 04:00:29;;;;;;;4.60;3.30;;;;;;;22.83;62.11;98950.88;6946819;28;20202;-77
2022/08/02 04:03:50;;;;;;;4.73;3.50;;;;;;;22.48;62.28;98931.72;6946608;28;20223;-78
2022/08/02 04:07:12;;;;;;;3.90;3.10;;;;;;;22.63;62.32;98959.16;6944961;28;20250;-77
2022/08/02 04:11:29;;;;;;;4.03;3.47;;;;;;;22.62;62.05;98972.09;6922396;28;20374;-77
2022/08/02 04:14:16;;;;;;;4.67;3.23;;;;;;;22.68;62.30;98968.22;6923443;28;20216;-77
2022/08/02 04:17:40;;;;;;;5.17;3.33;;;;;;;22.54;62.70;98966.34;6945102;28;20232;-77
2022/08/02 04:21:03;;;;;;;4.00;3.10;;;;;;;22.93;61.94;98973.63;6946221;28;20250;-77
2022/08/02 04:24:27;;;;;;;4.10;3.30;;;;;;;22.82;62.01;98973.94;6946712;28;20693;-77
2022/08/02 04:27:48;;;;;;;4.00;2.97;;;;;;;22.97;61.36;98983.00;6974602;28;20249;-78
2022/08/02 04:31:10;;;;;;;4.23;2.87;;;;;;;22.58;61.60;98978.41;6974382;28;20258;-77
2022/08/02 04:34:33;;;;;;;4.60;3.03;;;;;;;22.64;62.47;98994.63;6977375;28;20222;-77
2022/08/02 04:37:55;;;;;;;5.00;3.10;;;;;;;22.72;61.88;98995.97;6977947;28;20310;-77
2022/08/02 04:41:17;;;;;;;4.37;3.23;;;;;;;22.59;62.62;98991.88;6978673;28;20238;-79
2022/08/02 04:44:38;;;;;;;4.03;3.00;;;;;;;22.82;62.14;99002.28;6966334;28;20209;-78
2022/08/02 04:48:00;;;;;;;3.53;3.07;;;;;;;21.89;63.22;99010.28;6945860;28;20218;-78
2022/08/02 04:51:23;;;;;;;3.30;3.00;;;;;;;22.53;62.86;98997.69;6946448;28;20208;-79
2022/08/02 04:54:44;;;;;;;3.53;3.23;;;;;;;22.73;62.28;98975.63;6950997;28;20253;-78
2022/08/02 04:58:06;;;;;;;3.27;2.97;;;;;;;23.31;60.82;98996.91;6950049;28;20236;-78
2022/08/02 05:01:27;;;;;;;4.97;3.60;;;;;;;22.73;61.34;98995.69;6950641;28;20251;-77
2022/08/02 05:04:50;;;;;;;3.20;3.00;;;;;;;22.98;60.69;98983.78;6952535;28;20667;-79
2022/08/02 05:08:13;;;;;;;3.53;3.20;;;;;;;21.88;64.00;98990.22;6950215;28;20208;-77
2022/08/02 05:11:35;;;;;;;4.03;3.63;;;;;;;22.20;63.23;98995.47;6953411;28;20275;-81
2022/08/02 05:14:56;;;;;;;4.83;3.10;;;;;;;22.39;62.66;99005.63;6955329;28;20216;-81
2022/08/02 05:18:18;;;;;;;3.30;3.03;;;;;;;22.07;63.67;98974.84;6952432;28;20255;-81
2022/08/02 05:21:39;;;;;;;3.50;2.93;;;;;;;23.05;62.73;98993.41;6950550;28;20308;-79
2022/08/02 05:25:02;;;;;;;4.33;3.10;;;;;;;23.79;60.27;98982.31;6951058;28;20195;-80
2022/08/02 05:28:24;;;;;;;4.83;3.10;;;;;;;23.96;60.01;98949.72;6950664;28;20206;-79
2022/08/02 05:31:46;;;;;;;6.20;3.10;;;;;;;23.99;59.50;98988.53;6952049;28;20700;-82
2022/08/02 05:35:08;;;;;;;4.13;2.87;;;;;;;23.99;59.67;98991.28;6951199;28;20860;-79
2022/08/02 05:38:31;;;;;;;2.90;2.60;;;;;;;24.73;58.15;98988.16;6960806;28;20222;-79
2022/08/02 05:41:53;;;;;;;3.70;3.00;;;;;;;24.93;57.30;98988.75;6972209;28;20213;-79
2022/08/02 05:45:16;;;;;;;3.20;2.43;;;;;;;25.20;56.28;98972.41;6947650;28;20293;-79
2022/08/02 05:48:38;;;;;;;2.87;2.47;;;;;;;25.39;55.62;98969.72;6948691;28;20219;-78
2022/08/02 05:52:04;;;;;;;2.83;2.57;;;;;;;25.23;56.44;98982.03;6949280;28;20236;-79
2022/08/02 05:55:27;;;;;;;3.17;2.87;;;;;;;25.31;56.37;98973.16;6950148;28;20221;-79
2022/08/02 05:58:53;;;;;;;3.93;2.60;;;;;;;25.54;56.89;98986.09;6944491;28;20226;-79
2022/08/02 06:02:24;;;;;;;2.90;2.60;;;;;;;25.31;56.08;98979.47;6923651;28;20258;-78
2022/08/02 06:05:51;;;;;;;3.13;2.67;;;;;;;26.08;54.69;98989.16;6949501;28;20607;-78
2022/08/02 06:09:15;;;;;;;5.30;2.70;;;;;;;26.25;53.03;98993.00;6948602;28;20207;-79
2022/08/02 06:12:42;;;;;;;2.80;2.60;;;;;;;26.30;52.65;98987.41;6948663;28;20313;-79
2022/08/02 06:16:05;;;;;;;2.70;2.47;;;;;;;26.31;53.50;98994.56;6949136;28;20676;-80
2022/08/02 06:19:27;;;;;;;2.40;2.30;;;;;;;26.75;52.73;98980.25;6946343;28;20353;-79
2022/08/02 06:22:49;;;;;;;4.30;2.60;;;;;;;27.43;51.11;98993.00;6948633;28;20219;-79
2022/08/02 06:26:12;;;;;;;2.70;2.50;;;;;;;27.52;50.77;98990.31;6947732;28;20292;-79
2022/08/02 06:29:33;;;;;;;2.53;2.33;;;;;;;27.98;49.73;98994.56;6948194;28;20205;-79
2022/08/02 06:32:57;;;;;;;2.93;2.70;;;;;;;27.70;49.87;98992.13;6948123;28;20247;-79
2022/08/02 06:36:24;;;;;;;3.00;2.70;;;;;;;28.14;48.53;98983.91;6948544;28;20209;-79
2022/08/02 06:39:48;;;;;;;3.83;2.83;;;;;;;28.38;48.81;98984.44;6947868;28;20274;-79
2022/08/02 06:43:12;;;;;;;3.20;2.90;;;;;;;28.50;46.12;98988.31;6948481;28;20226;-79
2022/08/02 06:46:34;;;;;;;3.43;2.80;;;;;;;27.98;47.75;98975.16;6952130;28;20234;-79
2022/08/02 06:49:57;;;;;;;3.20;2.93;;;;;;;28.81;45.92;98988.28;6947275;28;20208;-80
2022/08/02 06:53:18;;;;;;;4.70;3.40;;;;;;;29.07;42.68;98987.28;6947734;28;20241;-80
2022/08/02 06:56:40;;;;;;;3.83;3.40;;;;;;;27.31;48.25;98989.13;6947739;28;20253;-80
2022/08/02 07:00:05;;;;;;;4.30;3.90;;;;;;;27.54;47.46;98985.31;6945880;28;20204;-80
2022/08/02 07:03:27;;;;;;;8.07;3.67;;;;;;;27.20;47.60;98958.03;6948120;28;20234;-79
2022/08/02 07:06:50;;;;;;;4.63;3.37;;;;;;;27.59;46.56;98980.47;6947878;28;20669;-79
2022/08/02 07:10:12;;;;;;;5.23;3.80;;;;;;;27.75;48.12;98992.00;6946840;28;20199;-79
2022/08/02 07:13:34;;;;;;;5.70;3.70;;;;;;;27.71;48.03;99002.91;6947814;28;20228;-79
2022/08/02 07:16:56;;;;;;;5.63;3.87;;;;;;;27.79;46.74;98995.84;6946914;28;20331;-79
2022/08/02 07:20:17;;;;;;;5.23;4.30;;;;;;;27.95;48.00;98983.28;6946820;28;20233;-79
2022/08/02 07:23:40;;;;;;;4.60;4.20;;;;;;;28.56;45.75;98986.19;6947101;28;20707;-78
2022/08/02 07:27:02;;;;;;;4.83;4.20;;;;;;;29.14;43.27;98982.09;6944967;28;20245;-78
2022/08/02 07:30:23;;;;;;;4.17;3.87;;;;;;;29.71;42.96;98992.09;6946370;28;20218;-79
2022/08/02 07:33:45;;;;;;;4.20;3.80;;;;;;;29.84;42.86;98996.66;6946601;28;20269;-79
2022/08/02 07:37:08;;;;;;;4.77;4.20;;;;;;;30.30;41.48;98979.38;6946323;28;20236;-79
2022/08/02 07:40:31;;;;;;;4.17;3.70;;;;;;;30.16;41.89;98968.44;6945835;28;20213;-80
2022/08/02 07:43:53;;;;;;;4.33;3.93;;;;;;;30.54;41.24;98993.59;6947163;28;20310;-80
2022/08/02 07:47:14;;;;;;;4.93;4.43;;;;;;;29.66;41.42;98997.78;6947081;28;20367;-79
2022/08/02 07:50:36;;;;;;;4.40;4.00;;;;;;;30.79;40.54;99001.88;6945669;28;20215;-79
2022/08/02 07:53:57;;;;;;;7.67;4.33;;;;;;;29.98;41.50;99002.09;6946557;28;20317;-79
2022/08/02 07:57:20;;;;;;;6.20;4.33;;;;;;;28.58;44.08;99003.34;6947143;28;20307;-78
2022/08/02 08:00:43;;;;;;;4.30;3.90;;;;;;;28.27;45.69;99003.28;6932213;28;20679;-81
2022/08/02 08:04:05;;;;;;;5.07;4.67;;;;;;;29.60;42.81;98999.09;6966123;28;20732;-80
2022/08/02 08:07:27;;;;;;;5.50;4.30;;;;;;;30.18;41.20;98988.38;6930183;28;20214;-78
2022/08/02 08:10:49;;;;;;;6.57;4.60;;;;;;;30.42;40.97;98994.25;6949900;28;20204;-79
2022/08/02 08:14:12;;;;;;;7.13;4.60;;;;;;;31.10;39.28;99007.19;6951286;28;20222;-78
2022/08/02 08:17:33;;;;;;;5.57;5.00;;;;;;;31.46;37.46;98994.44;6950048;28;20238;-79
2022/08/02 08:20:55;;;;;;;7.50;4.90;;;;;;;30.91;38.76;98998.41;6949413;28;20214;-79
2022/08/02 08:24:17;;;;;;;6.20;4.97;;;;;;;30.57;39.50;98985.38;6950186;28;20231;-78
2022/08/02 08:27:38;;;;;;;4.47;4.07;;;;;;;30.73;40.02;98988.50;6950760;28;20210;-78
2022/08/02 08:31:01;;;;;;;6.00;4.37;;;;;;;30.95;39.97;99000.19;6951159;28;20240;-79
2022/08/02 08:34:23;;;;;;;6.90;4.90;;;;;;;30.44;39.22;98999.50;6951502;28;20227;-79
2022/08/02 08:37:45;;;;;;;5.47;4.30;;;;;;;28.99;42.49;99001.16;6951110;28;20236;-80
2022/08/02 08:41:06;;;;;;;5.47;4.97;;;;;;;29.45;42.78;98991.19;6950310;28;20198;-78
2022/08/02 08:44:28;;;;;;;5.27;4.77;;;;;;;31.06;39.17;99004.25;6950125;28;20223;-79
2022/08/02 08:47:56;;;;;;;5.50;5.00;;;;;;;31.27;37.70;99002.41;6948602;28;20237;-79
2022/08/02 08:51:21;;;;;;;6.53;4.80;;;;;;;29.74;41.20;98996.19;6951731;28;20223;-78
2022/08/02 08:54:45;;;;;;;5.47;4.97;;;;;;;31.34;37.51;98990.72;6950204;28;20203;-78
2022/08/02 08:58:06;;;;;;;4.33;3.80;;;;;;;32.47;36.66;98986.47;6950055;28;20224;-79
2022/08/02 09:01:28;;;;;;;5.17;4.67;;;;;;;31.86;37.16;98975.34;6950279;28;20716;-79
2022/08/02 09:04:51;;;;;;;6.13;4.50;;;;;;;32.48;35.29;98990.91;6944392;28;20200;-79
2022/08/02 09:08:13;;;;;;;5.30;4.80;;;;;;;32.64;35.21;98985.47;6922183;28;20210;-78
2022/08/02 09:11:35;;;;;;;6.10;5.50;;;;;;;29.89;38.18;98987.38;6922164;28;20270;-79
2022/08/02 09:14:56;;;;;;;4.60;4.20;;;;;;;32.39;36.01;98970.63;6922297;28;20617;-78
2022/08/02 09:18:18;;;;;;;5.73;4.30;;;;;;;32.53;35.50;98962.75;6921476;28;20288;-78
2022/08/02 09:21:41;;;;;;;5.00;4.53;;;;;;;33.17;34.31;98982.56;6942277;28;20242;-79
2022/08/02 09:25:03;;;;;;;5.00;4.47;;;;;;;32.48;34.78;98979.72;6948843;28;20226;-80
2022/08/02 09:28:28;;;;;;;5.47;4.40;;;;;;;31.88;34.64;98978.59;6949112;28;20203;-78
2022/08/02 09:31:50;;;;;;;4.50;4.10;;;;;;;31.16;35.61;98978.00;6947044;28;20266;-79
2022/08/02 09:35:12;;;;;;;4.77;4.27;;;;;;;32.13;35.28;98970.00;6949814;28;20210;-78
2022/08/02 09:38:36;;;;;;;6.50;4.17;;;;;;;32.74;34.10;98959.91;6948872;28;20679;-79
2022/08/02 09:42:09;;;;;;;5.67;5.17;;;;;;;30.09;38.37;98962.53;6947409;28;20230;-78
2022/08/02 09:45:33;;;;;;;4.43;4.07;;;;;;;32.06;35.52;98964.16;6948517;28;20197;-78
2022/08/02 09:48:55;;;;;;;6.40;5.00;;;;;;;32.57;33.99;98966.50;6949192;28;20213;-79
2022/08/02 09:52:22;;;;;;;4.10;3.70;;;;;;;31.86;34.85;98955.81;6949881;28;20230;-78
2022/08/02 09:55:55;;;;;;;4.70;4.30;;;;;;;31.41;34.99;98963.97;6950163;28;20195;-79
2022/08/02 09:59:18;;;;;;;7.10;4.10;;;;;;;32.78;34.58;98950.50;6942913;28;20353;-79
2022/08/02 10:02:39;;;;;;;5.10;4.10;;;;;;;33.24;33.70;98955.69;6949525;28;20226;-79
2022/08/02 10:06:01;;;;;;;4.53;4.07;;;;;;;33.94;32.14;98960.78;6950091;28;20245;-81
2022/08/02 10:09:23;;;;;;;4.20;3.90;;;;;;;33.77;32.50;98947.06;6949195;28;20218;-79
2022/08/02 10:12:46;;;;;;;4.17;3.77;;;;;;;34.62;30.33;98953.16;6948327;28;20285;-79
2022/08/02 10:16:07;;;;;;;3.90;3.50;;;;;;;34.95;30.08;98954.50;6949537;28;20302;-78
2022/08/02 10:19:29;;;;;;;5.00;4.20;;;;;;;34.43;30.21;98955.84;6949244;28;20688;-79
2022/08/02 10:22:51;;;;;;;5.73;4.00;;;;;;;33.97;30.93;98942.47;6949240;28;20227;-78
2022/08/02 10:26:17;;;;;;;4.47;3.40;;;;;;;34.46;30.93;98941.94;6949091;28;20699;-79
2022/08/02 10:29:40;;;;;;;4.00;3.70;;;;;;;33.63;32.02;98938.22;6946272;28;20683;-79
2022/08/02 10:33:03;;;;;;;3.57;3.27;;;;;;;34.55;30.51;98927.78;6934477;28;20369;-79
2022/08/02 10:36:26;;;;;;;3.90;3.60;;;;;;;34.40;30.70;98911.75;6948380;28;20302;-81
2022/08/02 10:39:47;;;;;;;3.60;3.20;;;;;;;32.63;33.13;98930.78;6950491;28;20238;-81
2022/08/02 10:43:09;;;;;;;3.57;3.27;;;;;;;34.08;30.29;98915.59;6949270;28;20257;-79
2022/08/02 10:46:33;;;;;;;6.63;3.67;;;;;;;34.91;29.96;98927.56;6939089;28;20204;-79
2022/08/02 10:49:56;;;;;;;3.70;3.40;;;;;;;33.96;30.90;98865.28;6941346;28;20203;-79
2022/08/02 10:53:28;;;;;;;3.37;3.03;;;;;;;35.00;29.70;98906.56;6948184;28;20246;-79
2022/08/02 10:56:54;;;;;;;3.50;3.20;;;;;;;35.29;28.95;98903.31;6946890;28;20679;-79
2022/08/02 11:00:27;;;;;;;3.03;2.67;;;;;;;35.66;28.94;98896.16;6939087;28;20322;-79
2022/08/02 11:03:50;;;;;;;2.70;2.50;;;;;;;35.53;28.48;98900.28;6921356;28;20309;-80
2022/08/02 11:07:14;;;;;;;2.90;2.60;;;;;;;35.85;27.57;98909.44;6947326;28;20206;-79
2022/08/02 11:10:38;;;;;;;2.50;2.30;;;;;;;35.13;27.62;98905.28;6946327;28;20210;-79
2022/08/02 11:14:00;;;;;;;3.13;2.27;;;;;;;35.01;29.11;98897.00;6921485;28;20227;-77
2022/08/02 11:17:21;;;;;;;2.13;2.03;;;;;;;35.24;27.26;98889.56;6921375;28;20208;-79
2022/08/02 11:20:45;;;;;;;2.93;2.20;;;;;;;34.84;28.20;98897.34;6919403;28;20286;-80
2022/08/02 11:24:28;;;;;;;2.73;2.47;;;;;;;36.12;26.08;98872.72;6921922;28;20227;-80
2022/08/02 11:27:50;;;;;;;2.57;2.23;;;;;;;36.09;26.01;98875.44;6936373;28;20227;-80
2022/08/02 11:31:12;;;;;;;2.10;2.00;;;;;;;36.56;23.89;98890.84;6948872;28;20207;-81
2022/08/02 11:34:34;;;;;;;2.30;2.20;;;;;;;36.22;26.11;98874.97;6949545;28;20297;-82
2022/08/02 11:37:57;;;;;;;2.40;2.20;;;;;;;35.69;25.44;98875.78;6948883;28;20231;-80
2022/08/02 11:41:19;;;;;;;2.20;2.10;;;;;;;36.03;25.40;98860.09;6948839;28;20554;-81
2022/08/02 11:44:42;;;;;;;2.60;2.00;;;;;;;35.05;26.17;98864.25;6948292;28;20202;-80
2022/08/02 11:48:04;;;;;;;3.10;2.10;;;;;;;35.00;26.58;98872.13;6949427;28;20207;-81
2022/08/02 11:51:26;;;;;;;3.57;2.10;;;;;;;36.11;26.14;98865.47;6949481;28;20252;-81
2022/08/02 11:54:49;;;;;;;1.87;1.77;;;;;;;36.44;23.94;98862.91;6949397;28;20668;-80
2022/08/02 11:58:11;;;;;;;2.20;2.00;;;;;;;36.19;24.29;98864.44;6949341;28;20257;-81
2022/08/02 12:01:34;;;;;;;2.60;2.40;;;;;;;36.24;24.46;98869.78;6948584;28;20246;-80
2022/08/02 12:04:58;;;;;;;2.67;2.47;;;;;;;36.28;24.94;98867.84;6948674;28;20229;-82
2022/08/02 12:08:23;;;;;;;2.70;2.50;;;;;;;36.53;24.86;98860.69;6948448;28;20288;-81
2022/08/02 12:11:48;;;;;;;3.70;2.30;;;;;;;36.21;24.57;98864.91;6950855;28;20222;-81
2022/08/02 12:15:10;;;;;;;2.30;2.10;;;;;;;36.23;25.14;98870.13;6957383;28;20206;-81
2022/08/02 12:22:13;;;;;;;3.10;1.83;;;;;;;36.88;24.13;98855.72;6917382;28;20225;-81
2022/08/02 12:25:35;;;;;;;2.47;2.20;;;;;;;35.50;25.24;98860.94;6947588;28;20195;-81
2022/08/02 12:29:00;;;;;;;3.10;2.50;;;;;;;35.78;25.42;98844.75;6946302;28;20215;-81
2022/08/02 12:32:24;;;;;;;2.60;2.23;;;;;;;36.24;25.30;98846.47;6947568;28;20325;-81
2022/08/02 12:35:46;;;;;;;2.50;2.30;;;;;;;36.19;25.10;98844.78;6947684;28;20261;-82
2022/08/02 12:39:11;;;;;;;4.17;2.30;;;;;;;36.61;24.92;98859.63;6947411;28;20336;-81
2022/08/02 12:42:46;;;;;;;2.80;2.30;;;;;;;35.74;25.45;98838.22;6921142;28;20778;-81
2022/08/02 12:46:15;;;;;;;2.80;2.60;;;;;;;35.64;25.12;98850.84;6920792;28;20270;-81
2022/08/02 12:49:37;;;;;;;2.93;2.60;;;;;;;36.02;25.35;98839.59;6921574;28;20208;-81
2022/08/02 12:53:07;;;;;;;3.00;2.50;;;;;;;36.52;24.70;98838.56;6946407;28;20293;-81
2022/08/02 12:56:30;;;;;;;4.80;2.50;;;;;;;36.27;25.04;98845.75;6953682;28;20239;-81
2022/08/02 12:59:53;;;;;;;2.60;2.40;;;;;;;36.32;24.37;98804.09;6953691;28;20234;-81
2022/08/02 13:03:16;;;;;;;4.80;2.63;;;;;;;36.42;24.68;98808.31;6953528;28;20265;-81
2022/08/02 13:06:37;;;;;;;2.70;2.50;;;;;;;36.34;24.00;98818.59;6948855;28;20227;-81
2022/08/02 13:09:59;;;;;;;2.63;2.43;;;;;;;35.00;26.19;98824.47;6924998;28;20601;-81
2022/08/02 13:13:20;;;;;;;3.73;2.60;;;;;;;34.85;25.43;98814.91;6926816;28;20267;-80
2022/08/02 13:16:43;;;;;;;2.73;2.53;;;;;;;35.78;24.94;98816.69;6934981;28;20199;-80
2022/08/02 13:20:07;;;;;;;3.97;2.60;;;;;;;36.34;24.34;98815.81;6951674;28;20307;-81
2022/08/02 13:23:29;;;;;;;3.33;2.83;;;;;;;36.05;24.88;98822.03;6952871;28;20234;-80
2022/08/02 13:26:51;;;;;;;2.40;2.13;;;;;;;36.46;23.94;98795.13;6952828;28;20212;-80
2022/08/02 13:30:12;;;;;;;2.93;2.40;;;;;;;36.27;24.05;98815.69;6953934;28;20253;-80
2022/08/02 13:33:34;;;;;;;3.67;2.70;;;;;;;36.54;24.13;98810.94;6956643;28;20704;-80
2022/08/02 13:36:57;;;;;;;2.93;2.57;;;;;;;37.24;23.05;98803.66;6957662;28;20206;-81
2022/08/02 13:40:19;;;;;;;2.80;2.60;;;;;;;36.53;24.15;98803.66;6951469;28;20273;-80
2022/08/02 13:43:40;;;;;;;2.93;2.60;;;;;;;36.10;23.90;98792.84;6951784;28;20222;-81
2022/08/02 13:47:02;;;;;;;2.80;2.53;;;;;;;35.92;24.01;98772.03;6952673;28;20222;-81
2022/08/02 13:50:23;;;;;;;3.60;2.20;;;;;;;36.63;23.52;98803.09;6950769;28;20211;-80
2022/08/02 13:53:46;;;;;;;3.40;2.60;;;;;;;36.27;24.19;98790.41;6950634;28;20250;-80
2022/08/02 13:57:08;;;;;;;3.47;2.60;;;;;;;36.05;24.05;98777.13;6950227;28;20680;-81
2022/08/02 14:00:29;;;;;;;4.17;2.77;;;;;;;35.99;23.39;98781.41;6952205;28;20219;-81
2022/08/02 14:03:52;;;;;;;2.50;2.30;;;;;;;36.03;24.15;98761.81;6951200;28;20223;-82
2022/08/02 14:07:14;;;;;;;2.73;2.53;;;;;;;36.19;23.48;98768.19;6950738;28;20211;-81
2022/08/02 14:10:37;;;;;;;2.63;2.40;;;;;;;36.10;24.54;98756.34;6950805;28;20293;-81
2022/08/02 14:13:59;;;;;;;2.83;2.53;;;;;;;36.79;22.23;98764.41;6950484;28;20223;-81
2022/08/02 14:17:21;;;;;;;2.63;2.43;;;;;;;36.32;23.57;98750.75;6950428;28;20214;-81
2022/08/02 14:20:44;;;;;;;2.83;2.60;;;;;;;36.17;23.49;98767.72;6950508;28;20234;-82
2022/08/02 14:24:06;;;;;;;2.63;2.43;;;;;;;35.95;23.39;98757.28;6951503;28;20234;-82
2022/08/02 14:27:29;;;;;;;3.07;2.40;;;;;;;35.04;24.60;98764.53;6951294;28;20210;-82
2022/08/02 14:30:51;;;;;;;5.30;2.60;;;;;;;35.61;24.46;98772.19;6950412;28;20230;-80
2022/08/02 14:34:13;;;;;;;4.07;2.50;;;;;;;36.15;23.84;98756.84;6950506;28;20723;-81
2022/08/02 14:37:35;;;;;;;2.93;2.40;;;;;;;36.42;22.71;98760.56;6950512;28;20210;-83
2022/08/02 14:40:56;;;;;;;2.77;2.43;;;;;;;35.81;23.34;98743.78;6950286;28;20992;-82
2022/08/02 14:44:19;;;;;;;3.00;2.70;;;;;;;35.71;23.55;98726.72;6936922;28;20247;-80
2022/08/02 14:47:41;;;;;;;2.50;2.30;;;;;;;36.63;22.28;98761.75;6949969;28;20199;-79
2022/08/02 14:51:02;;;;;;;2.50;2.30;;;;;;;35.32;23.35;98750.34;6949893;28;20375;-80
2022/08/02 14:54:25;;;;;;;2.30;2.20;;;;;;;36.19;21.90;98754.16;6950116;28;20219;-81
2022/08/02 14:57:48;;;;;;;2.60;2.40;;;;;;;36.28;22.29;98758.31;6950178;28;20286;-81
2022/08/02 15:01:11;;;;;;;2.30;2.20;;;;;;;36.48;21.98;98747.81;6951023;28;20219;-80
2022/08/02 15:04:33;;;;;;;2.40;2.20;;;;;;;36.43;21.53;98739.72;6951362;28;20207;-81
2022/08/02 15:07:54;;;;;;;2.00;1.90;;;;;;;36.64;21.33;98738.09;6949157;28;20199;-80
2022/08/02 15:11:16;;;;;;;3.67;2.60;;;;;;;36.44;21.52;98753.34;6948648;28;20214;-80
2022/08/02 15:14:38;;;;;;;2.20;2.10;;;;;;;36.56;21.75;98749.56;6949822;28;20300;-81
2022/08/02 15:18:01;;;;;;;3.70;2.57;;;;;;;36.28;21.97;98761.13;6950147;28;20782;-81
2022/08/02 15:21:22;;;;;;;3.70;2.40;;;;;;;36.13;22.58;98741.56;6951341;28;20263;-83
2022/08/02 15:24:44;;;;;;;4.90;2.20;;;;;;;35.20;22.50;98734.44;6950723;28;20561;-80
2022/08/02 15:28:06;;;;;;;2.10;2.00;;;;;;;35.87;22.51;98727.44;6945501;28;20213;-80
2022/08/02 15:31:28;;;;;;;2.30;2.20;;;;;;;35.69;23.00;98737.47;6922804;28;20224;-79
2022/08/02 15:34:51;;;;;;;2.47;2.27;;;;;;;35.37;22.99;98663.13;6924131;28;20259;-79
2022/08/02 15:38:12;;;;;;;3.53;2.50;;;;;;;35.43;21.94;98670.84;6924712;28;20250;-80
2022/08/02 15:41:34;;;;;;;2.93;2.30;;;;;;;35.71;22.32;98723.91;6934215;28;20251;-80
2022/08/02 15:44:55;;;;;;;2.97;2.30;;;;;;;35.56;21.98;98733.22;6929044;28;20207;-80
2022/08/02 15:48:17;;;;;;;2.10;2.00;;;;;;;35.23;21.98;98716.91;6923265;28;20212;-80
2022/08/02 15:51:40;;;;;;;2.20;2.10;;;;;;;35.52;21.95;98729.53;6925128;28;20237;-81
2022/08/02 15:55:01;;;;;;;2.57;2.20;;;;;;;35.69;21.39;98712.22;6924287;28;20208;-80
2022/08/02 15:58:25;;;;;;;2.10;1.90;;;;;;;35.47;21.33;98719.41;6927900;28;20230;-80
2022/08/02 16:01:47;;;;;;;4.27;2.30;;;;;;;35.52;21.72;98710.72;6960616;28;20235;-81
2022/08/02 16:05:09;;;;;;;2.20;2.10;;;;;;;35.65;21.78;98714.13;6949456;28;20207;-83